Time;durP1;ratioP1;P1;durP2;ratioP2;P2;SDS_P1;SDS_P2;PMS_P1;PMS_P2;Temp;Humidity;BMP_temperature;BMP_pressure;BME280_temperature;BME280_humidity;BME280_pressure;Samples;Min_cycle;Max_cycle;Signal;HPM_P1;HPM_P2
2023/08/17 00:01:44;;;;;;;2.17;1.40;;;19.70;75.80;;;;;;5062648;28;20048;-69
2023/08/17 00:04:10;;;;;;;3.38;1.73;;;19.70;75.80;;;;;;5059390;28;20023;-68
2023/08/17 00:06:36;;;;;;;3.10;1.70;;;19.70;75.70;;;;;;5055290;28;20060;-68
2023/08/17 00:09:03;;;;;;;2.65;1.45;;;19.70;75.60;;;;;;5060843;28;20031;-69
2023/08/17 00:11:29;;;;;;;3.13;1.60;;;19.70;75.40;;;;;;5063520;28;20074;-69
2023/08/17 00:13:54;;;;;;;2.55;1.67;;;19.70;75.40;;;;;;5064045;28;20025;-68
2023/08/17 00:16:20;;;;;;;3.20;1.77;;;19.70;75.40;;;;;;5055875;28;20112;-69
2023/08/17 00:18:46;;;;;;;2.42;1.45;;;19.70;75.30;;;;;;5065704;28;20123;-69
2023/08/17 00:21:11;;;;;;;2.80;1.40;;;19.70;75.40;;;;;;5055228;28;20475;-69
2023/08/17 00:23:37;;;;;;;2.65;1.48;;;19.60;75.30;;;;;;5065739;28;20032;-69
2023/08/17 00:26:02;;;;;;;4.60;1.70;;;19.60;75.50;;;;;;5061248;28;20032;-69
2023/08/17 00:28:28;;;;;;;5.55;1.80;;;19.60;75.50;;;;;;5060181;28;20069;-69
2023/08/17 00:30:53;;;;;;;4.75;1.80;;;19.60;75.50;;;;;;5054666;28;20017;-69
2023/08/17 00:33:19;;;;;;;1.88;1.48;;;19.60;75.60;;;;;;5068372;28;20025;-69
2023/08/17 00:35:45;;;;;;;3.30;1.67;;;19.60;75.50;;;;;;5068137;28;20029;-69
2023/08/17 00:38:11;;;;;;;2.90;1.42;;;19.50;75.50;;;;;;5063109;28;20023;-69
2023/08/17 00:40:37;;;;;;;4.00;1.70;;;19.60;75.60;;;;;;5067827;28;20020;-69
2023/08/17 00:43:03;;;;;;;4.15;1.98;;;19.60;75.50;;;;;;5059650;28;20391;-69
2023/08/17 00:45:29;;;;;;;3.42;1.60;;;19.50;75.60;;;;;;5064277;28;20070;-69
2023/08/17 00:47:57;;;;;;;4.38;1.60;;;19.60;75.60;;;;;;5054853;28;20427;-68
2023/08/17 00:50:24;;;;;;;3.28;1.70;;;19.50;75.60;;;;;;5063593;28;20146;-69
2023/08/17 00:52:52;;;;;;;2.45;1.50;;;19.50;75.70;;;;;;5060346;28;20029;-69
2023/08/17 00:55:18;;;;;;;2.60;1.55;;;19.50;75.70;;;;;;5068223;28;20021;-68
2023/08/17 00:57:44;;;;;;;3.47;1.55;;;19.50;75.70;;;;;;5059763;28;20035;-69
2023/08/17 01:00:12;;;;;;;5.38;1.70;;;19.50;75.80;;;;;;5069913;28;20028;-69
2023/08/17 01:02:39;;;;;;;2.40;1.60;;;19.40;76.00;;;;;;5058775;28;20031;-68
2023/08/17 01:05:06;;;;;;;4.22;1.70;;;19.40;76.00;;;;;;5064336;28;20674;-69
2023/08/17 01:07:32;;;;;;;3.67;1.90;;;19.40;76.20;;;;;;5068398;28;20036;-69
2023/08/17 01:09:58;;;;;;;4.80;2.03;;;19.40;76.40;;;;;;5070265;28;20016;-70
2023/08/17 01:12:30;;;;;;;3.88;1.90;;;19.30;76.40;;;;;;5064414;28;20021;-68
2023/08/17 01:15:23;;;;;;;4.32;1.80;;;19.40;76.50;;;;;;5055618;28;20020;-71
2023/08/17 01:18:04;;;;;;;2.95;1.65;;;19.30;76.50;;;;;;5062502;28;20504;-71
2023/08/17 01:20:31;;;;;;;5.18;2.00;;;19.30;76.60;;;;;;5064216;28;20028;-71
2023/08/17 01:23:05;;;;;;;2.38;1.52;;;19.20;76.70;;;;;;5068470;28;20028;-69
2023/08/17 01:25:30;;;;;;;3.22;1.75;;;19.20;76.80;;;;;;5058218;28;20036;-68
2023/08/17 01:27:58;;;;;;;4.72;1.70;;;19.20;76.90;;;;;;5057151;28;20479;-70
2023/08/17 01:30:24;;;;;;;2.80;1.77;;;19.20;76.90;;;;;;5064487;28;20013;-70
2023/08/17 01:32:56;;;;;;;2.33;1.70;;;19.20;77.10;;;;;;5062906;28;20074;-70
2023/08/17 01:35:21;;;;;;;;;;;19.20;77.20;;;;;;5054595;28;20025;-68
2023/08/17 01:37:52;;;;;;;4.68;1.92;;;19.10;77.20;;;;;;5064065;28;19916;-68
2023/08/17 01:40:19;;;;;;;2.60;1.70;;;19.00;77.40;;;;;;5058189;28;20020;-69
2023/08/17 01:42:45;;;;;;;3.85;1.90;;;19.00;77.60;;;;;;5063543;28;20061;-69
2023/08/17 01:45:11;;;;;;;4.03;1.83;;;19.00;77.60;;;;;;5054231;28;20433;-68
2023/08/17 01:47:37;;;;;;;4.85;1.92;;;19.00;77.80;;;;;;5062063;28;20028;-69
2023/08/17 01:50:02;;;;;;;4.03;1.75;;;19.00;77.90;;;;;;5066364;28;20032;-68
2023/08/17 01:52:28;;;;;;;2.90;1.80;;;19.00;78.00;;;;;;5051964;28;20062;-67
2023/08/17 01:54:54;;;;;;;3.83;1.60;;;19.00;78.10;;;;;;5064926;28;20021;-67
2023/08/17 01:57:20;;;;;;;3.92;1.80;;;18.90;78.20;;;;;;5060980;28;20033;-67
2023/08/17 01:59:46;;;;;;;3.53;1.80;;;19.00;78.30;;;;;;5072408;28;20035;-68
2023/08/17 02:02:14;;;;;;;3.85;1.88;;;18.90;78.40;;;;;;5065956;28;20032;-68
2023/08/17 02:04:40;;;;;;;2.92;1.95;;;18.90;78.60;;;;;;5063325;28;20029;-68
2023/08/17 02:07:05;;;;;;;3.53;1.80;;;18.90;78.60;;;;;;5070245;28;20556;-68
2023/08/17 02:09:31;;;;;;;4.97;1.90;;;18.80;78.80;;;;;;5071270;28;20074;-67
2023/08/17 02:11:56;;;;;;;2.80;1.60;;;18.80;79.00;;;;;;5065348;28;20056;-70
2023/08/17 02:14:22;;;;;;;3.13;1.90;;;18.80;79.00;;;;;;5066040;28;20032;-69
2023/08/17 02:16:47;;;;;;;3.33;1.80;;;18.80;79.10;;;;;;5063285;28;20567;-69
2023/08/17 02:19:13;;;;;;;2.80;1.70;;;18.70;79.20;;;;;;5065169;28;20028;-69
2023/08/17 02:21:39;;;;;;;4.15;1.90;;;18.70;79.30;;;;;;5070711;28;20040;-69
2023/08/17 02:24:05;;;;;;;4.88;1.92;;;18.70;79.30;;;;;;5063701;28;20039;-70
2023/08/17 02:26:30;;;;;;;3.85;1.88;;;18.70;79.50;;;;;;5070521;28;20035;-70
2023/08/17 02:28:56;;;;;;;2.97;1.77;;;18.70;79.60;;;;;;5066023;28;20027;-68
2023/08/17 02:31:21;;;;;;;4.75;1.85;;;18.60;79.80;;;;;;5071320;28;20031;-69
2023/08/17 02:33:47;;;;;;;4.22;1.75;;;18.60;79.80;;;;;;5068816;28;20095;-68
2023/08/17 02:36:12;;;;;;;2.95;1.60;;;18.60;79.80;;;;;;5066846;28;20043;-69
2023/08/17 02:38:38;;;;;;;3.72;1.60;;;18.60;79.80;;;;;;5066485;28;20545;-69
2023/08/17 02:41:04;;;;;;;3.88;1.75;;;18.60;79.70;;;;;;5060699;28;20108;-69
2023/08/17 02:43:29;;;;;;;3.25;1.63;;;18.60;79.90;;;;;;5065239;28;20056;-69
2023/08/17 02:45:55;;;;;;;3.65;1.60;;;18.50;79.80;;;;;;5058381;28;20112;-69
2023/08/17 02:48:20;;;;;;;6.18;1.80;;;18.60;79.80;;;;;;5066752;28;20066;-68
2023/08/17 02:50:46;;;;;;;2.90;1.80;;;18.60;79.70;;;;;;5068391;28;20433;-70
2023/08/17 02:53:12;;;;;;;5.03;1.98;;;18.60;79.60;;;;;;5070963;28;20028;-69
2023/08/17 02:55:37;;;;;;;4.15;1.67;;;18.50;79.80;;;;;;5069373;28;20027;-68
2023/08/17 02:58:03;;;;;;;3.05;1.70;;;18.50;80.00;;;;;;5071299;28;20028;-68
2023/08/17 03:00:28;;;;;;;3.45;1.80;;;18.50;79.90;;;;;;5072262;28;20171;-69
2023/08/17 03:02:54;;;;;;;3.40;1.80;;;18.50;79.90;;;;;;5054714;28;20050;-70
2023/08/17 03:05:20;;;;;;;4.13;2.00;;;18.50;79.90;;;;;;5052257;28;20075;-68
2023/08/17 03:07:45;;;;;;;5.00;1.80;;;18.50;80.00;;;;;;5053384;28;20033;-68
2023/08/17 03:10:11;;;;;;;4.18;1.88;;;18.50;80.10;;;;;;5071953;28;20021;-69
2023/08/17 03:12:38;;;;;;;2.95;1.80;;;18.40;80.10;;;;;;5071364;28;20032;-69
2023/08/17 03:15:06;;;;;;;3.97;1.80;;;18.40;80.90;;;;;;5071235;28;20017;-68
2023/08/17 03:17:31;;;;;;;5.25;2.00;;;18.30;80.40;;;;;;5069940;28;20071;-68
2023/08/17 03:19:59;;;;;;;4.05;1.77;;;18.40;80.40;;;;;;5069110;28;20609;-68
2023/08/17 03:22:25;;;;;;;4.20;2.00;;;18.30;80.50;;;;;;5070651;28;20021;-68
2023/08/17 03:24:50;;;;;;;5.20;1.65;;;18.30;80.60;;;;;;5062511;28;20082;-69
2023/08/17 03:27:16;;;;;;;4.57;2.03;;;18.30;80.70;;;;;;5062817;28;20028;-68
2023/08/17 03:29:41;;;;;;;3.47;1.80;;;18.30;80.70;;;;;;5069644;28;20486;-70
2023/08/17 03:32:07;;;;;;;5.25;2.22;;;18.20;80.70;;;;;;5059500;28;20024;-69
2023/08/17 03:34:32;;;;;;;4.55;1.92;;;18.20;80.90;;;;;;5070589;28;20016;-68
2023/08/17 03:36:58;;;;;;;5.05;2.10;;;18.20;81.10;;;;;;5055006;28;20027;-69
2023/08/17 03:39:24;;;;;;;5.45;2.08;;;18.10;81.30;;;;;;5061801;28;20024;-70
2023/08/17 03:41:49;;;;;;;3.80;2.40;;;18.10;81.50;;;;;;5063777;28;20068;-71
2023/08/17 03:44:15;;;;;;;6.80;2.40;;;18.00;81.60;;;;;;5064334;28;20368;-69
2023/08/17 03:46:41;;;;;;;5.13;1.90;;;18.00;81.80;;;;;;5067219;28;20029;-69
2023/08/17 03:49:07;;;;;;;5.32;2.35;;;18.00;82.00;;;;;;5065773;28;20414;-69
2023/08/17 03:51:32;;;;;;;4.28;2.20;;;17.90;82.10;;;;;;5062181;28;20020;-69
2023/08/17 03:53:58;;;;;;;5.25;2.40;;;17.90;82.30;;;;;;5063197;28;20024;-70
2023/08/17 03:56:24;;;;;;;3.45;1.80;;;17.90;82.40;;;;;;5067660;28;20035;-69
2023/08/17 03:58:50;;;;;;;3.75;2.20;;;17.90;82.50;;;;;;5064636;28;20040;-68
2023/08/17 04:01:16;;;;;;;4.93;2.03;;;17.80;82.50;;;;;;5064870;28;20502;-69
2023/08/17 04:03:41;;;;;;;2.35;1.80;;;17.80;82.70;;;;;;5061256;28;20025;-69
2023/08/17 04:06:10;;;;;;;6.55;2.42;;;17.70;82.80;;;;;;5056363;28;20025;-69
2023/08/17 04:08:38;;;;;;;2.92;1.90;;;17.80;83.10;;;;;;5068702;28;20526;-69
2023/08/17 04:11:05;;;;;;;3.42;1.73;;;17.70;83.20;;;;;;5068764;28;20048;-70
2023/08/17 04:13:31;;;;;;;3.13;1.90;;;17.70;83.30;;;;;;5066592;28;20102;-69
2023/08/17 04:15:56;;;;;;;3.30;1.83;;;17.70;83.40;;;;;;5066997;28;20028;-69
2023/08/17 04:18:22;;;;;;;2.88;1.70;;;17.60;83.40;;;;;;5066839;28;20614;-68
2023/08/17 04:20:48;;;;;;;5.43;2.30;;;17.60;83.50;;;;;;5061449;28;20032;-68
2023/08/17 04:23:13;;;;;;;5.63;2.08;;;17.60;83.60;;;;;;5061290;28;20071;-68
2023/08/17 04:25:39;;;;;;;4.18;1.85;;;17.60;83.80;;;;;;5063650;28;20032;-68
2023/08/17 04:28:05;;;;;;;2.97;1.73;;;17.60;83.80;;;;;;5063093;28;20078;-68
2023/08/17 04:30:30;;;;;;;3.55;1.95;;;17.50;83.90;;;;;;5062271;28;20463;-68
2023/08/17 04:32:56;;;;;;;4.15;2.10;;;17.50;83.90;;;;;;5069518;28;20029;-68
2023/08/17 04:35:22;;;;;;;2.50;1.65;;;17.50;83.90;;;;;;5064048;28;20020;-68
2023/08/17 04:37:47;;;;;;;4.40;1.90;;;17.60;83.90;;;;;;5061097;28;20041;-68
2023/08/17 04:40:13;;;;;;;4.18;1.90;;;17.60;83.90;;;;;;5068641;28;20039;-68
2023/08/17 04:42:39;;;;;;;4.25;2.00;;;17.60;83.90;;;;;;5069505;28;20237;-68
2023/08/17 04:45:05;;;;;;;2.97;1.60;;;17.60;83.90;;;;;;5063406;28;20028;-68
2023/08/17 04:47:31;;;;;;;3.15;1.80;;;17.60;84.00;;;;;;5055992;28;20029;-68
2023/08/17 04:49:57;;;;;;;3.38;1.88;;;17.60;84.00;;;;;;5057282;28;20047;-69
2023/08/17 04:52:22;;;;;;;5.15;1.60;;;17.60;84.10;;;;;;5067261;28;20048;-70
2023/08/17 04:54:48;;;;;;;3.83;1.90;;;17.60;84.10;;;;;;5060935;28;20036;-68
2023/08/17 04:57:13;;;;;;;3.47;1.77;;;17.70;83.90;;;;;;5067983;28;20559;-69
2023/08/17 04:59:39;;;;;;;3.50;1.88;;;17.70;84.00;;;;;;5069516;28;20028;-68
2023/08/17 05:02:05;;;;;;;2.60;1.60;;;17.70;84.00;;;;;;5065943;28;20030;-69
2023/08/17 05:04:31;;;;;;;2.97;1.67;;;17.70;83.90;;;;;;5068284;28;20116;-68
2023/08/17 05:06:56;;;;;;;5.10;1.90;;;17.80;83.80;;;;;;5052190;28;20021;-68
2023/08/17 05:09:22;;;;;;;3.05;1.67;;;17.80;83.70;;;;;;5052464;28;20507;-68
2023/08/17 05:11:48;;;;;;;3.25;1.70;;;17.80;83.60;;;;;;5055202;28;20032;-69
2023/08/17 05:14:13;;;;;;;3.15;1.52;;;17.80;83.50;;;;;;5050769;28;20017;-69
2023/08/17 05:16:39;;;;;;;2.28;1.50;;;17.80;83.40;;;;;;5065211;28;20486;-69
2023/08/17 05:19:05;;;;;;;4.75;1.65;;;17.90;83.20;;;;;;5050908;28;20533;-68
2023/08/17 05:21:30;;;;;;;3.92;1.70;;;17.90;83.10;;;;;;5055864;28;20047;-68
2023/08/17 05:23:56;;;;;;;2.28;1.63;;;18.00;83.00;;;;;;5068759;28;20029;-68
2023/08/17 05:26:22;;;;;;;4.22;1.77;;;18.10;82.80;;;;;;5057596;28;20025;-68
2023/08/17 05:28:47;;;;;;;4.55;1.80;;;18.10;82.70;;;;;;5064900;28;20494;-69
2023/08/17 05:31:13;;;;;;;2.90;1.65;;;18.20;82.60;;;;;;5063389;28;20100;-69
2023/08/17 05:33:40;;;;;;;2.75;1.60;;;18.30;82.40;;;;;;5071428;28;20058;-68
2023/08/17 05:36:07;;;;;;;2.90;1.52;;;18.40;82.10;;;;;;5060388;28;20017;-70
2023/08/17 05:38:32;;;;;;;4.60;1.88;;;18.80;82.10;;;;;;5071499;28;20028;-69
2023/08/17 05:40:59;;;;;;;3.03;1.48;;;19.60;80.40;;;;;;5066114;28;20025;-70
2023/08/17 05:43:25;;;;;;;3.17;1.52;;;20.40;78.00;;;;;;5066484;28;20399;-69
2023/08/17 05:45:51;;;;;;;2.42;1.40;;;21.20;75.60;;;;;;5059085;28;20398;-68
2023/08/17 05:48:20;;;;;;;4.13;1.60;;;21.80;73.10;;;;;;5072065;28;20051;-68
2023/08/17 05:50:47;;;;;;;3.25;1.40;;;22.30;71.00;;;;;;5069425;28;20029;-69
2023/08/17 05:53:12;;;;;;;3.72;1.38;;;22.80;69.20;;;;;;5068282;28;20108;-68
2023/08/17 05:55:38;;;;;;;3.67;1.60;;;22.90;67.60;;;;;;5073462;28;20107;-69
2023/08/17 05:58:04;;;;;;;2.47;1.40;;;23.20;66.60;;;;;;5063626;28;20036;-69
2023/08/17 06:00:29;;;;;;;3.28;1.30;;;23.50;65.90;;;;;;5067822;28;20029;-69
2023/08/17 06:03:00;;;;;;;2.65;1.35;;;23.90;64.70;;;;;;5072026;28;20028;-69
2023/08/17 06:05:27;;;;;;;2.58;1.30;;;24.20;63.80;;;;;;5073496;28;20392;-70
2023/08/17 06:07:52;;;;;;;1.88;1.40;;;24.60;62.60;;;;;;5068506;28;20029;-69
2023/08/17 06:10:18;;;;;;;2.33;1.20;;;24.80;61.70;;;;;;5069660;28;20023;-68
2023/08/17 06:12:44;;;;;;;3.72;1.20;;;25.00;61.10;;;;;;5073199;28;20047;-68
2023/08/17 06:15:10;;;;;;;2.35;1.30;;;25.30;60.40;;;;;;5058159;28;20063;-69
2023/08/17 06:17:35;;;;;;;3.60;1.20;;;25.60;59.70;;;;;;5067802;28;20399;-69
2023/08/17 06:20:02;;;;;;;2.22;1.10;;;25.00;59.50;;;;;;5061409;28;20036;-69
2023/08/17 06:22:28;;;;;;;2.03;1.33;;;24.10;61.80;;;;;;5069846;28;20414;-69
2023/08/17 06:24:54;;;;;;;2.58;1.40;;;23.30;62.90;;;;;;5061222;28;20032;-69
2023/08/17 06:27:19;;;;;;;3.15;1.25;;;22.40;65.00;;;;;;5071524;28;20064;-68
2023/08/17 06:29:45;;;;;;;2.22;1.40;;;21.80;66.80;;;;;;5069010;28;20048;-68
2023/08/17 06:32:11;;;;;;;4.22;1.25;;;21.30;68.40;;;;;;5072824;28;20021;-69
2023/08/17 06:34:36;;;;;;;3.03;1.45;;;20.90;69.70;;;;;;5066652;28;20578;-68
2023/08/17 06:37:03;;;;;;;3.72;1.25;;;20.60;70.60;;;;;;5056118;28;20032;-68
2023/08/17 06:39:29;;;;;;;3.97;1.40;;;20.30;71.50;;;;;;5064112;28;20029;-69
2023/08/17 06:41:55;;;;;;;3.03;1.40;;;20.10;72.20;;;;;;5067940;28;20075;-70
2023/08/17 06:44:20;;;;;;;2.83;1.40;;;20.00;73.00;;;;;;5067279;28;20036;-70
2023/08/17 06:46:46;;;;;;;3.97;1.30;;;19.90;73.50;;;;;;5066730;28;20103;-70
2023/08/17 06:49:12;;;;;;;3.90;1.35;;;19.80;73.90;;;;;;5069261;28;20460;-68
2023/08/17 06:51:38;;;;;;;1.95;1.52;;;19.80;74.10;;;;;;5065794;28;20101;-69
2023/08/17 06:54:06;;;;;;;4.38;1.70;;;19.70;74.50;;;;;;5070149;28;20471;-69
2023/08/17 06:56:32;;;;;;;2.22;1.40;;;19.70;74.70;;;;;;5072493;28;20031;-69
2023/08/17 06:58:57;;;;;;;3.80;1.60;;;19.60;75.00;;;;;;5069580;28;20096;-69
2023/08/17 07:01:23;;;;;;;1.88;1.40;;;19.50;75.40;;;;;;5066143;28;20051;-69
2023/08/17 07:03:48;;;;;;;3.33;1.60;;;19.50;75.70;;;;;;5060167;28;20394;-69
2023/08/17 07:06:14;;;;;;;3.67;1.77;;;19.50;76.00;;;;;;5070519;28;20029;-71
2023/08/17 07:08:40;;;;;;;2.67;1.40;;;19.50;76.20;;;;;;5068880;28;20029;-69
2023/08/17 07:11:06;;;;;;;5.28;1.90;;;19.40;76.30;;;;;;5069833;28;20033;-71
2023/08/17 07:13:31;;;;;;;5.13;1.73;;;19.40;76.80;;;;;;5062917;28;20392;-71
2023/08/17 07:15:57;;;;;;;3.22;1.67;;;19.50;76.80;;;;;;5060298;28;20046;-70
2023/08/17 07:18:23;;;;;;;3.28;1.58;;;19.50;76.80;;;;;;5059592;28;20071;-70
2023/08/17 07:20:49;;;;;;;4.60;1.90;;;19.60;76.90;;;;;;5058569;28;20032;-71
2023/08/17 07:23:15;;;;;;;4.10;1.60;;;19.60;77.00;;;;;;5066034;28;20400;-71
2023/08/17 07:25:40;;;;;;;3.50;1.90;;;19.60;77.10;;;;;;5065957;28;20017;-69
2023/08/17 07:28:06;;;;;;;4.20;1.70;;;19.60;77.00;;;;;;5067164;28;20024;-69
2023/08/17 07:30:32;;;;;;;2.83;1.60;;;19.70;77.10;;;;;;5069686;28;20493;-70
2023/08/17 07:32:57;;;;;;;4.05;1.83;;;19.60;77.00;;;;;;5063822;28;20070;-69
2023/08/17 07:35:23;;;;;;;3.13;1.50;;;19.60;77.20;;;;;;5068393;28;20360;-69
2023/08/17 07:37:49;;;;;;;7.35;1.73;;;19.70;77.30;;;;;;5071769;28;20294;-69
2023/08/17 07:40:14;;;;;;;4.30;1.90;;;19.70;77.20;;;;;;5069380;28;20387;-69
2023/08/17 07:42:40;;;;;;;3.75;1.70;;;19.80;77.20;;;;;;5071026;28;20032;-70
2023/08/17 07:45:07;;;;;;;5.03;1.90;;;19.90;77.10;;;;;;5059225;28;20077;-70
2023/08/17 07:47:36;;;;;;;4.10;1.63;;;19.90;77.00;;;;;;5064261;28;20024;-69
2023/08/17 07:50:02;;;;;;;4.72;1.90;;;19.90;77.00;;;;;;5060287;28;20431;-70
2023/08/17 07:52:28;;;;;;;3.97;2.10;;;20.00;76.90;;;;;;5064367;28;20020;-70
2023/08/17 07:54:53;;;;;;;3.38;1.70;;;19.90;76.70;;;;;;5062885;28;20036;-69
2023/08/17 07:57:19;;;;;;;4.30;2.13;;;19.90;76.90;;;;;;5070097;28;20031;-69
2023/08/17 07:59:44;;;;;;;2.80;1.80;;;19.80;77.10;;;;;;5066648;28;20029;-70
2023/08/17 08:02:10;;;;;;;4.80;1.98;;;19.80;78.00;;;;;;5066502;28;20394;-69
2023/08/17 08:04:36;;;;;;;4.88;1.85;;;19.80;77.50;;;;;;5055271;28;20037;-70
2023/08/17 08:07:01;;;;;;;2.42;1.80;;;19.90;77.40;;;;;;5071127;28;20091;-70
2023/08/17 08:09:27;;;;;;;3.35;1.83;;;19.90;77.40;;;;;;5071426;28;20025;-70
2023/08/17 08:11:52;;;;;;;3.53;2.00;;;19.90;77.20;;;;;;5066965;28;20033;-70
2023/08/17 08:14:18;;;;;;;3.17;1.50;;;19.90;77.20;;;;;;5051363;28;20085;-69
2023/08/17 08:16:43;;;;;;;4.93;2.00;;;20.00;77.20;;;;;;5063194;28;20063;-69
2023/08/17 08:19:09;;;;;;;4.72;2.00;;;19.90;77.20;;;;;;5068929;28;20040;-69
2023/08/17 08:21:34;;;;;;;4.50;2.10;;;19.90;77.30;;;;;;5067826;28;20032;-70
2023/08/17 08:24:00;;;;;;;3.58;2.00;;;19.90;77.40;;;;;;5071234;28;20028;-69
2023/08/17 08:26:26;;;;;;;4.13;2.00;;;19.90;77.60;;;;;;5063151;28;20020;-69
2023/08/17 08:28:51;;;;;;;3.70;1.70;;;19.80;77.80;;;;;;5052277;28;20550;-69
2023/08/17 08:31:17;;;;;;;4.50;1.83;;;19.90;77.80;;;;;;5059727;28;20025;-70
2023/08/17 08:33:43;;;;;;;2.17;1.70;;;19.90;77.70;;;;;;5060241;28;20041;-69
2023/08/17 08:36:09;;;;;;;5.97;2.13;;;20.00;77.50;;;;;;5067891;28;20036;-70
2023/08/17 08:38:34;;;;;;;7.22;2.38;;;20.00;77.50;;;;;;5062648;28;20016;-70
2023/08/17 08:41:02;;;;;;;5.22;2.20;;;20.00;77.70;;;;;;5063347;28;20416;-69
2023/08/17 08:43:27;;;;;;;5.47;2.47;;;20.00;77.90;;;;;;5064165;28;20044;-70
2023/08/17 08:45:55;;;;;;;4.22;2.25;;;20.00;77.90;;;;;;5062017;28;20068;-70
2023/08/17 08:48:23;;;;;;;7.93;2.70;;;20.10;77.80;;;;;;5059979;28;20491;-70
2023/08/17 08:50:50;;;;;;;3.35;2.28;;;20.10;77.90;;;;;;5064056;28;20066;-69
2023/08/17 08:53:19;;;;;;;4.78;2.20;;;20.10;77.70;;;;;;5062307;28;20029;-70
2023/08/17 08:55:51;;;;;;;5.15;2.33;;;20.10;77.50;;;;;;5060611;28;20083;-70
2023/08/17 08:58:17;;;;;;;3.80;2.10;;;20.10;77.30;;;;;;5059573;28;20411;-70
2023/08/17 09:00:47;;;;;;;6.90;3.13;;;20.10;77.30;;;;;;5057618;28;20025;-69
2023/08/17 09:03:14;;;;;;;4.15;2.15;;;20.00;77.60;;;;;;5064175;28;20047;-69
2023/08/17 09:05:42;;;;;;;5.05;2.55;;;20.10;77.60;;;;;;5060079;28;20023;-70
2023/08/17 09:08:11;;;;;;;5.45;3.13;;;20.20;77.50;;;;;;5060841;28;20021;-69
2023/08/17 09:10:36;;;;;;;7.25;3.17;;;20.10;77.60;;;;;;5057957;28;20025;-69
2023/08/17 09:13:02;;;;;;;5.65;2.60;;;19.90;78.30;;;;;;5057587;28;20032;-70
2023/08/17 09:15:28;;;;;;;6.25;2.80;;;20.10;78.50;;;;;;5063106;28;20538;-69
2023/08/17 09:17:53;;;;;;;6.75;3.20;;;20.20;78.10;;;;;;5058213;28;20108;-69
2023/08/17 09:20:39;;;;;;;5.82;2.85;;;20.30;77.70;;;;;;5060880;28;20246;-69
2023/08/17 09:23:13;;;;;;;6.28;2.78;;;20.40;77.60;;;;;;5063316;28;20028;-70
2023/08/17 09:25:40;;;;;;;5.65;2.83;;;20.50;77.20;;;;;;5060510;28;20028;-70
2023/08/17 09:28:14;;;;;;;5.90;3.53;;;20.50;77.00;;;;;;5058552;28;20128;-69
2023/08/17 09:30:55;;;;;;;6.95;3.40;;;20.60;76.80;;;;;;5065871;28;20454;-70
2023/08/17 09:33:31;;;;;;;7.47;3.17;;;20.60;76.60;;;;;;5067118;28;20418;-70
2023/08/17 09:35:59;;;;;;;4.80;2.65;;;20.60;76.60;;;;;;5063649;28;20028;-69
2023/08/17 09:38:26;;;;;;;6.95;3.22;;;20.70;76.50;;;;;;5063606;28;20029;-69
2023/08/17 09:40:52;;;;;;;6.28;3.40;;;20.60;76.50;;;;;;5064192;28;20036;-69
2023/08/17 09:43:18;;;;;;;5.50;3.45;;;20.50;76.80;;;;;;5063149;28;20028;-69
2023/08/17 09:45:47;;;;;;;9.63;4.05;;;20.50;76.70;;;;;;5063649;28;20025;-69
2023/08/17 09:48:16;;;;;;;6.57;2.85;;;20.50;77.00;;;;;;5065780;28;20132;-70
2023/08/17 09:50:46;;;;;;;5.07;2.80;;;20.60;77.20;;;;;;5063955;28;20025;-70
2023/08/17 09:53:17;;;;;;;4.90;3.10;;;20.70;77.00;;;;;;5063081;28;20025;-70
2023/08/17 09:55:44;;;;;;;5.90;3.25;;;20.90;76.60;;;;;;5062241;28;20407;-71
2023/08/17 09:58:10;;;;;;;5.63;3.13;;;20.90;76.40;;;;;;5065500;28;20017;-69
2023/08/17 10:00:37;;;;;;;5.80;2.78;;;20.90;76.10;;;;;;5062448;28;20555;-69
2023/08/17 10:03:03;;;;;;;6.45;3.53;;;21.00;76.00;;;;;;5059047;28;20028;-69
2023/08/17 10:05:35;;;;;;;5.25;3.15;;;20.90;75.90;;;;;;5065379;28;20032;-69
2023/08/17 10:08:02;;;;;;;8.27;3.50;;;20.90;75.90;;;;;;5065179;28;20063;-70
2023/08/17 10:10:34;;;;;;;5.90;3.20;;;20.90;76.00;;;;;;5063940;28;20016;-69
2023/08/17 10:13:10;;;;;;;8.50;3.70;;;20.90;76.20;;;;;;5063266;28;20034;-69
2023/08/17 10:15:42;;;;;;;8.18;3.95;;;20.90;76.30;;;;;;5063274;28;20368;-71
2023/08/17 10:18:28;;;;;;;5.70;3.35;;;20.90;76.30;;;;;;5070556;28;20036;-70
2023/08/17 10:21:10;;;;;;;4.90;3.05;;;20.80;76.30;;;;;;5066725;28;20487;-70
2023/08/17 10:23:37;;;;;;;7.97;3.50;;;20.80;76.60;;;;;;5068009;28;20023;-70
2023/08/17 10:26:05;;;;;;;5.85;3.63;;;20.90;76.60;;;;;;5062357;28;20728;-70
2023/08/17 10:28:34;;;;;;;6.78;3.50;;;20.80;76.50;;;;;;5068776;28;20048;-69
2023/08/17 10:31:00;;;;;;;5.18;3.20;;;20.80;76.60;;;;;;5067834;28;20039;-69
2023/08/17 10:33:27;;;;;;;6.63;3.13;;;20.80;76.90;;;;;;5068614;28;20466;-70
2023/08/17 10:35:53;;;;;;;7.85;3.00;;;20.80;77.00;;;;;;5069724;28;20028;-69
2023/08/17 10:38:19;;;;;;;5.75;3.10;;;20.80;77.10;;;;;;5067946;28;20127;-70
2023/08/17 10:40:45;;;;;;;4.68;3.05;;;20.80;76.90;;;;;;5067879;28;20143;-69
2023/08/17 10:43:12;;;;;;;6.03;3.15;;;20.80;76.90;;;;;;5066495;28;20013;-69
2023/08/17 10:45:38;;;;;;;7.82;3.95;;;20.90;76.80;;;;;;5068074;28;20054;-69
2023/08/17 10:48:07;;;;;;;7.00;3.65;;;20.90;76.60;;;;;;5068143;28;20028;-69
2023/08/17 10:50:33;;;;;;;6.18;4.18;;;20.80;76.60;;;;;;5068397;28;20021;-69
2023/08/17 10:53:15;;;;;;;6.28;3.40;;;20.80;76.90;;;;;;5068755;28;20024;-70
2023/08/17 10:55:44;;;;;;;6.25;3.40;;;20.80;77.30;;;;;;5067766;28;20020;-69
2023/08/17 10:58:13;;;;;;;6.38;3.20;;;20.80;77.20;;;;;;5063401;28;20060;-70
2023/08/17 11:00:39;;;;;;;6.35;3.70;;;20.90;77.10;;;;;;5062240;28;20039;-70
2023/08/17 11:03:12;;;;;;;8.13;3.88;;;20.90;77.10;;;;;;5058393;28;20525;-69
2023/08/17 11:05:43;;;;;;;9.02;4.70;;;20.90;77.10;;;;;;5062272;28;20029;-70
2023/08/17 11:08:11;;;;;;;5.43;3.30;;;20.80;77.30;;;;;;5065217;28;20538;-70
2023/08/17 11:10:38;;;;;;;7.75;4.20;;;20.70;77.80;;;;;;5065523;28;20035;-70
2023/08/17 11:13:04;;;;;;;7.68;4.25;;;20.60;77.80;;;;;;5065046;28;20079;-70
2023/08/17 11:15:37;;;;;;;7.60;3.97;;;20.60;78.50;;;;;;5066101;28;20445;-69
2023/08/17 11:18:07;;;;;;;5.75;3.40;;;20.70;78.60;;;;;;5064719;28;20116;-69
2023/08/17 11:20:34;;;;;;;5.72;2.95;;;20.70;78.40;;;;;;5067889;28;20047;-69
2023/08/17 11:23:00;;;;;;;7.35;3.85;;;20.90;78.30;;;;;;5066080;28;20013;-70
2023/08/17 11:25:29;;;;;;;7.63;3.97;;;20.90;78.00;;;;;;5067862;28;20114;-69
2023/08/17 11:27:54;;;;;;;6.55;4.00;;;21.00;77.80;;;;;;5065391;28;20495;-70
2023/08/17 11:30:22;;;;;;;5.93;3.78;;;21.00;77.60;;;;;;5061956;28;20056;-70
2023/08/17 11:32:52;;;;;;;5.63;3.30;;;20.90;77.60;;;;;;5066771;28;20020;-69
2023/08/17 11:35:18;;;;;;;5.78;3.60;;;20.80;78.00;;;;;;5066672;28;20756;-70
2023/08/17 11:37:43;;;;;;;6.47;3.65;;;20.90;77.90;;;;;;5065268;28;20028;-69
2023/08/17 11:40:11;;;;;;;5.53;3.03;;;21.10;77.60;;;;;;5064877;28;20446;-70
2023/08/17 11:42:37;;;;;;;5.13;3.40;;;21.20;77.30;;;;;;5067141;28;20025;-70
2023/08/17 11:45:09;;;;;;;7.78;3.85;;;21.30;77.00;;;;;;5065340;28;20028;-70
2023/08/17 11:47:38;;;;;;;7.13;3.35;;;21.20;77.10;;;;;;5067182;28;20044;-69
2023/08/17 11:50:04;;;;;;;6.40;3.83;;;21.20;77.00;;;;;;5067058;28;20071;-70
2023/08/17 11:52:36;;;;;;;5.47;3.35;;;21.20;77.00;;;;;;5068235;28;20109;-70
2023/08/17 11:55:02;;;;;;;7.22;4.40;;;21.20;77.00;;;;;;5068015;28;20020;-70
2023/08/17 11:57:29;;;;;;;7.97;4.10;;;21.00;77.20;;;;;;5067609;28;20036;-69
2023/08/17 11:59:56;;;;;;;6.05;3.63;;;20.80;78.30;;;;;;5064065;28;20036;-70
2023/08/17 12:02:29;;;;;;;5.05;3.40;;;20.80;78.80;;;;;;5067299;28;20052;-70
2023/08/17 12:04:56;;;;;;;3.92;2.88;;;20.80;78.80;;;;;;5064801;28;20028;-70
2023/08/17 12:07:25;;;;;;;5.03;3.30;;;20.90;78.50;;;;;;5066066;28;20112;-69
2023/08/17 12:09:52;;;;;;;6.65;3.40;;;21.00;78.30;;;;;;5067386;28;20031;-69
2023/08/17 12:12:19;;;;;;;5.13;3.42;;;21.10;78.10;;;;;;5067581;28;20052;-70
2023/08/17 12:14:47;;;;;;;6.65;3.33;;;21.20;78.00;;;;;;5066012;28;20034;-69
2023/08/17 12:17:16;;;;;;;5.53;3.17;;;21.20;77.80;;;;;;5066070;28;20415;-69
2023/08/17 12:19:43;;;;;;;5.40;3.38;;;21.30;77.50;;;;;;5063374;28;20024;-70
2023/08/17 12:22:08;;;;;;;5.38;3.22;;;21.40;77.40;;;;;;5066339;28;20043;-70
2023/08/17 12:24:37;;;;;;;6.85;4.43;;;21.40;77.20;;;;;;5065927;28;20501;-70
2023/08/17 12:27:03;;;;;;;5.18;3.50;;;21.20;77.30;;;;;;5064612;28;20130;-70
2023/08/17 12:29:29;;;;;;;4.95;3.28;;;21.10;78.00;;;;;;5066786;28;20024;-69
2023/08/17 12:31:57;;;;;;;6.18;3.90;;;21.20;78.00;;;;;;5063098;28;20036;-69
2023/08/17 12:34:23;;;;;;;6.45;3.95;;;21.20;77.90;;;;;;5063325;28;20027;-70
2023/08/17 12:36:49;;;;;;;6.93;4.32;;;21.20;77.80;;;;;;5058966;28;20032;-69
2023/08/17 12:39:18;;;;;;;6.55;4.00;;;21.20;78.20;;;;;;5059139;28;20028;-70
2023/08/17 12:41:44;;;;;;;6.57;4.10;;;21.20;78.10;;;;;;5062192;28;20031;-69
2023/08/17 12:44:13;;;;;;;5.70;3.80;;;21.30;77.90;;;;;;5055871;28;21387;-69
2023/08/17 12:46:41;;;;;;;7.55;3.60;;;21.30;78.00;;;;;;5062474;28;20037;-70